Rocky River, Ohio
Current Conditions -  °F | °C
As of 1:51 AM on Friday 31 Oct 2014 (Local Time) from KCLE Reporting Station
Overcast Overcast  
Wind Chill: 42°   Ceiling: 5000
Heat Index: 44°   Visibility: 10mi
Dew Point: 35°   Wind: 5mph
Humidity: 71%   Direction: 210°SSW
Pressure: 30.03"   Gusts: NA
Location:  41.47°N, 81.85°W
Report Text: KCLE 310551Z 21004KT 10SM OVC050 07/02 A3003 RMK AO2 SLP173 T00670017 10072 20050 58012
Loading
Personal Weather Stations






























Interactive Weather Map
Tropical Storm Tracking
New forecast layout! Learn more

10-Day Weather Forecast

Advertisements
Track Severe Weather on mobile